sensor_id;sensor_type;location;lat;lon;timestamp;pressure;altitude;pressure_sealevel;temperature;humidity
21944;BME280;11136;48.778;9.126;2023-12-29T00:01:21;97390.50;;;9.86;64.58
21944;BME280;11136;48.778;9.126;2023-12-29T00:03:46;97445.78;;;10.43;64.89
21944;BME280;11136;48.778;9.126;2023-12-29T00:06:12;97542.19;;;11.13;64.71
21944;BME280;11136;48.778;9.126;2023-12-29T00:08:37;97454.06;;;10.34;64.76
21944;BME280;11136;48.778;9.126;2023-12-29T00:11:02;97546.59;;;11.11;64.60
21944;BME280;11136;48.778;9.126;2023-12-29T00:13:28;97418.69;;;10.27;64.51
21944;BME280;11136;48.778;9.126;2023-12-29T00:15:54;97481.25;;;10.77;64.58
21944;BME280;11136;48.778;9.126;2023-12-29T00:18:19;97534.56;;;11.11;64.45
21944;BME280;11136;48.778;9.126;2023-12-29T00:20:45;97556.84;;;11.11;64.52
21944;BME280;11136;48.778;9.126;2023-12-29T00:23:10;97298.91;;;9.49;64.16
21944;BME280;11136;48.778;9.126;2023-12-29T00:25:38;97542.06;;;11.14;63.95
21944;BME280;11136;48.778;9.126;2023-12-29T00:28:04;97523.25;;;10.88;64.30
21944;BME280;11136;48.778;9.126;2023-12-29T00:30:30;97529.25;;;11.14;63.95
21944;BME280;11136;48.778;9.126;2023-12-29T00:32:55;97381.69;;;10.04;64.19
21944;BME280;11136;48.778;9.126;2023-12-29T00:35:21;97170.66;;;8.87;63.87
21944;BME280;11136;48.778;9.126;2023-12-29T00:37:46;97501.81;;;10.89;63.96
21944;BME280;11136;48.778;9.126;2023-12-29T00:40:11;97489.66;;;10.79;64.20
21944;BME280;11136;48.778;9.126;2023-12-29T00:42:37;97531.09;;;11.12;63.93
21944;BME280;11136;48.778;9.126;2023-12-29T00:45:03;97459.34;;;10.58;64.15
21944;BME280;11136;48.778;9.126;2023-12-29T00:47:28;97457.09;;;10.54;63.67
21944;BME280;11136;48.778;9.126;2023-12-29T00:49:54;97357.81;;;10.03;63.97
21944;BME280;11136;48.778;9.126;2023-12-29T00:52:19;97509.88;;;10.83;63.87
21944;BME280;11136;48.778;9.126;2023-12-29T00:54:44;96758.03;;;5.95;62.98
21944;BME280;11136;48.778;9.126;2023-12-29T00:57:09;97352.69;;;10.03;63.99
21944;BME280;11136;48.778;9.126;2023-12-29T00:59:37;97394.28;;;10.21;63.60
21944;BME280;11136;48.778;9.126;2023-12-29T01:02:05;97311.81;;;9.48;63.92
21944;BME280;11136;48.778;9.126;2023-12-29T01:04:31;97474.72;;;10.58;63.93
21944;BME280;11136;48.778;9.126;2023-12-29T01:06:56;97471.78;;;10.64;64.13
21944;BME280;11136;48.778;9.126;2023-12-29T01:09:21;97522.22;;;10.91;64.30
21944;BME280;11136;48.778;9.126;2023-12-29T01:11:47;97372.97;;;9.79;63.88
21944;BME280;11136;48.778;9.126;2023-12-29T01:14:12;97470.44;;;10.59;64.36
21944;BME280;11136;48.778;9.126;2023-12-29T01:16:38;97389.88;;;10.09;64.13
21944;BME280;11136;48.778;9.126;2023-12-29T01:19:03;97469.41;;;10.61;64.03
21944;BME280;11136;48.778;9.126;2023-12-29T01:21:29;97435.28;;;10.34;64.06
21944;BME280;11136;48.778;9.126;2023-12-29T01:23:58;97300.38;;;9.54;63.57
21944;BME280;11136;48.778;9.126;2023-12-29T01:26:24;97430.16;;;10.34;63.61
21944;BME280;11136;48.778;9.126;2023-12-29T01:28:49;97460.38;;;10.56;63.50
21944;BME280;11136;48.778;9.126;2023-12-29T01:31:14;97411.50;;;10.32;63.34
21944;BME280;11136;48.778;9.126;2023-12-29T01:33:39;97172.31;;;8.88;63.59
21944;BME280;11136;48.778;9.126;2023-12-29T01:36:05;97489.75;;;10.64;63.18
21944;BME280;11136;48.778;9.126;2023-12-29T01:38:30;97335.53;;;9.64;62.92
21944;BME280;11136;48.778;9.126;2023-12-29T01:40:56;97448.09;;;10.34;62.91
21944;BME280;11136;48.778;9.126;2023-12-29T01:43:21;97421.34;;;10.38;62.99
21944;BME280;11136;48.778;9.126;2023-12-29T01:45:46;97337.13;;;9.79;63.10
21944;BME280;11136;48.778;9.126;2023-12-29T01:48:11;97261.28;;;9.51;63.16
21944;BME280;11136;48.778;9.126;2023-12-29T01:50:37;97494.63;;;10.94;63.17
21944;BME280;11136;48.778;9.126;2023-12-29T01:53:03;97426.63;;;10.49;63.11
21944;BME280;11136;48.778;9.126;2023-12-29T01:55:31;97493.69;;;10.95;63.07
21944;BME280;11136;48.778;9.126;2023-12-29T01:57:56;97373.09;;;10.18;62.91
21944;BME280;11136;48.778;9.126;2023-12-29T02:00:22;97255.75;;;9.58;62.78
21944;BME280;11136;48.778;9.126;2023-12-29T02:02:48;97135.09;;;8.70;62.60
21944;BME280;11136;48.778;9.126;2023-12-29T02:05:15;97365.25;;;10.21;62.52
21944;BME280;11136;48.778;9.126;2023-12-29T02:07:42;97513.72;;;11.28;62.47
21944;BME280;11136;48.778;9.126;2023-12-29T02:10:07;97411.97;;;10.51;62.52
21944;BME280;11136;48.778;9.126;2023-12-29T02:12:34;97327.38;;;10.11;62.40
21944;BME280;11136;48.778;9.126;2023-12-29T02:15:02;97513.84;;;11.27;63.01
21944;BME280;11136;48.778;9.126;2023-12-29T02:17:31;97449.25;;;10.82;62.62
21944;BME280;11136;48.778;9.126;2023-12-29T02:19:59;97240.88;;;9.50;62.63
21944;BME280;11136;48.778;9.126;2023-12-29T02:22:25;97509.91;;;11.09;62.50
21944;BME280;11136;48.778;9.126;2023-12-29T02:24:50;97238.75;;;9.57;62.31
21944;BME280;11136;48.778;9.126;2023-12-29T02:27:34;97510.75;;;11.22;62.87
21944;BME280;11136;48.778;9.126;2023-12-29T02:30:09;97419.28;;;10.70;62.51
21944;BME280;11136;48.778;9.126;2023-12-29T02:32:38;97317.94;;;9.99;62.47
21944;BME280;11136;48.778;9.126;2023-12-29T02:35:05;97413.03;;;10.74;62.63
21944;BME280;11136;48.778;9.126;2023-12-29T02:37:34;97355.84;;;10.34;62.67
21944;BME280;11136;48.778;9.126;2023-12-29T02:40:00;97153.69;;;9.13;62.63
21944;BME280;11136;48.778;9.126;2023-12-29T02:42:26;97479.16;;;11.21;62.61
21944;BME280;11136;48.778;9.126;2023-12-29T02:44:51;97249.47;;;9.89;62.33
21944;BME280;11136;48.778;9.126;2023-12-29T02:47:17;97518.16;;;11.26;62.82
21944;BME280;11136;48.778;9.126;2023-12-29T02:49:44;97332.78;;;10.21;62.69
21944;BME280;11136;48.778;9.126;2023-12-29T02:52:09;97487.78;;;11.20;63.04
21944;BME280;11136;48.778;9.126;2023-12-29T02:54:34;97128.75;;;8.90;63.19
21944;BME280;11136;48.778;9.126;2023-12-29T02:56:59;97076.34;;;8.56;63.14
21944;BME280;11136;48.778;9.126;2023-12-29T02:59:25;97234.13;;;9.22;63.37
21944;BME280;11136;48.778;9.126;2023-12-29T03:01:50;97484.19;;;11.10;64.03
21944;BME280;11136;48.778;9.126;2023-12-29T03:04:15;97346.53;;;10.33;63.52
21944;BME280;11136;48.778;9.126;2023-12-29T03:06:42;97338.13;;;10.31;63.62
21944;BME280;11136;48.778;9.126;2023-12-29T03:09:07;97281.22;;;9.86;63.77
21944;BME280;11136;48.778;9.126;2023-12-29T03:11:32;97459.41;;;10.96;63.94
21944;BME280;11136;48.778;9.126;2023-12-29T03:13:57;97279.53;;;9.72;64.28
21944;BME280;11136;48.778;9.126;2023-12-29T03:16:23;97010.00;;;8.27;64.25
21944;BME280;11136;48.778;9.126;2023-12-29T03:18:48;97397.31;;;10.53;64.81
21944;BME280;11136;48.778;9.126;2023-12-29T03:21:13;97377.47;;;10.30;64.51
21944;BME280;11136;48.778;9.126;2023-12-29T03:23:39;97060.19;;;8.43;64.76
21944;BME280;11136;48.778;9.126;2023-12-29T03:26:04;97478.22;;;11.10;64.65
21944;BME280;11136;48.778;9.126;2023-12-29T03:28:29;97210.81;;;9.54;64.96
21944;BME280;11136;48.778;9.126;2023-12-29T03:30:55;97440.47;;;10.47;65.21
21944;BME280;11136;48.778;9.126;2023-12-29T03:33:20;97446.25;;;10.76;65.23
21944;BME280;11136;48.778;9.126;2023-12-29T03:35:45;97398.03;;;10.42;65.39
21944;BME280;11136;48.778;9.126;2023-12-29T03:38:10;97354.63;;;10.00;65.57
21944;BME280;11136;48.778;9.126;2023-12-29T03:40:36;97447.72;;;10.92;65.47
21944;BME280;11136;48.778;9.126;2023-12-29T03:43:01;97206.34;;;9.30;65.17
21944;BME280;11136;48.778;9.126;2023-12-29T03:45:26;97364.47;;;10.33;65.66
21944;BME280;11136;48.778;9.126;2023-12-29T03:47:51;97291.16;;;9.78;65.76
21944;BME280;11136;48.778;9.126;2023-12-29T03:50:17;97148.03;;;8.81;65.62
21944;BME280;11136;48.778;9.126;2023-12-29T03:52:42;97164.97;;;8.97;65.83
21944;BME280;11136;48.778;9.126;2023-12-29T03:55:07;97354.63;;;10.12;66.26
21944;BME280;11136;48.778;9.126;2023-12-29T03:57:32;97377.06;;;10.23;66.79
21944;BME280;11136;48.778;9.126;2023-12-29T03:59:58;97400.69;;;10.41;66.90
21944;BME280;11136;48.778;9.126;2023-12-29T04:02:23;97293.44;;;9.56;66.56
21944;BME280;11136;48.778;9.126;2023-12-29T04:04:48;97347.41;;;9.92;66.68
21944;BME280;11136;48.778;9.126;2023-12-29T04:07:14;97376.03;;;10.26;66.92
21944;BME280;11136;48.778;9.126;2023-12-29T04:09:39;97527.16;;;10.40;67.51
21944;BME280;11136;48.778;9.126;2023-12-29T04:12:04;97341.84;;;10.12;66.83
21944;BME280;11136;48.778;9.126;2023-12-29T04:14:30;97424.97;;;10.48;67.06
21944;BME280;11136;48.778;9.126;2023-12-29T04:16:55;97446.88;;;10.66;67.51
21944;BME280;11136;48.778;9.126;2023-12-29T04:19:20;97279.13;;;9.66;66.85
21944;BME280;11136;48.778;9.126;2023-12-29T04:21:45;97301.91;;;9.83;67.33
21944;BME280;11136;48.778;9.126;2023-12-29T04:24:11;97077.56;;;8.50;67.10
21944;BME280;11136;48.778;9.126;2023-12-29T04:26:36;97417.09;;;10.51;67.11
21944;BME280;11136;48.778;9.126;2023-12-29T04:29:02;97384.09;;;9.93;67.74
21944;BME280;11136;48.778;9.126;2023-12-29T04:31:27;97278.00;;;9.43;67.76
21944;BME280;11136;48.778;9.126;2023-12-29T04:33:52;97076.94;;;8.47;67.43
21944;BME280;11136;48.778;9.126;2023-12-29T04:36:18;97152.09;;;8.71;68.38
21944;BME280;11136;48.778;9.126;2023-12-29T04:38:43;97437.00;;;10.60;68.75
21944;BME280;11136;48.778;9.126;2023-12-29T04:41:11;97233.25;;;9.09;68.31
21944;BME280;11136;48.778;9.126;2023-12-29T04:43:37;96681.78;;;5.19;68.40
21944;BME280;11136;48.778;9.126;2023-12-29T04:46:02;97252.09;;;9.08;69.28
21944;BME280;11136;48.778;9.126;2023-12-29T04:48:27;97188.09;;;8.81;69.36
21944;BME280;11136;48.778;9.126;2023-12-29T04:50:52;97466.91;;;10.47;69.49
21944;BME280;11136;48.778;9.126;2023-12-29T04:53:18;97320.44;;;9.74;68.79
21944;BME280;11136;48.778;9.126;2023-12-29T04:55:43;97125.78;;;8.42;68.43
21944;BME280;11136;48.778;9.126;2023-12-29T04:58:08;97178.31;;;8.18;68.38
21944;BME280;11136;48.778;9.126;2023-12-29T05:00:33;97382.81;;;10.12;68.52
21944;BME280;11136;48.778;9.126;2023-12-29T05:02:59;97177.75;;;8.97;68.59
21944;BME280;11136;48.778;9.126;2023-12-29T05:05:24;97367.03;;;9.79;69.34
21944;BME280;11136;48.778;9.126;2023-12-29T05:07:49;97207.88;;;9.06;68.71
21944;BME280;11136;48.778;9.126;2023-12-29T05:10:15;97300.19;;;9.15;68.79
21944;BME280;11136;48.778;9.126;2023-12-29T05:12:40;97381.53;;;10.20;68.67
21944;BME280;11136;48.778;9.126;2023-12-29T05:15:06;97080.78;;;8.25;68.92
21944;BME280;11136;48.778;9.126;2023-12-29T05:17:31;97402.94;;;10.19;68.64
21944;BME280;11136;48.778;9.126;2023-12-29T05:19:56;97372.66;;;9.98;68.69
21944;BME280;11136;48.778;9.126;2023-12-29T05:22:22;97469.84;;;10.81;68.73
21944;BME280;11136;48.778;9.126;2023-12-29T05:24:47;97193.09;;;8.97;68.96
21944;BME280;11136;48.778;9.126;2023-12-29T05:27:12;97284.63;;;9.60;68.82
21944;BME280;11136;48.778;9.126;2023-12-29T05:29:38;97109.97;;;8.36;68.89
21944;BME280;11136;48.778;9.126;2023-12-29T05:32:04;97242.41;;;9.26;69.04
21944;BME280;11136;48.778;9.126;2023-12-29T05:34:30;97116.16;;;8.60;69.63
21944;BME280;11136;48.778;9.126;2023-12-29T05:36:55;97467.69;;;10.74;69.38
21944;BME280;11136;48.778;9.126;2023-12-29T05:39:20;97300.66;;;9.76;69.40
21944;BME280;11136;48.778;9.126;2023-12-29T05:41:46;97436.63;;;10.12;69.80
21944;BME280;11136;48.778;9.126;2023-12-29T05:44:11;97402.91;;;10.06;70.11
21944;BME280;11136;48.778;9.126;2023-12-29T05:46:36;97427.78;;;10.04;70.45
21944;BME280;11136;48.778;9.126;2023-12-29T05:49:01;97352.72;;;9.89;70.90
21944;BME280;11136;48.778;9.126;2023-12-29T05:51:27;97279.03;;;9.40;70.62
21944;BME280;11136;48.778;9.126;2023-12-29T05:53:52;97283.94;;;9.43;70.76
21944;BME280;11136;48.778;9.126;2023-12-29T05:56:17;97328.94;;;9.74;70.68
21944;BME280;11136;48.778;9.126;2023-12-29T05:58:43;97315.34;;;9.33;70.70
21944;BME280;11136;48.778;9.126;2023-12-29T06:01:09;97463.97;;;10.53;71.20
21944;BME280;11136;48.778;9.126;2023-12-29T06:03:34;97431.59;;;10.25;71.06
21944;BME280;11136;48.778;9.126;2023-12-29T06:06:00;97328.28;;;9.71;71.02
21944;BME280;11136;48.778;9.126;2023-12-29T06:08:25;97475.66;;;10.57;70.79
21944;BME280;11136;48.778;9.126;2023-12-29T06:10:50;97382.91;;;9.98;71.38
21944;BME280;11136;48.778;9.126;2023-12-29T06:13:15;97256.63;;;9.17;71.12
21944;BME280;11136;48.778;9.126;2023-12-29T06:15:41;97285.97;;;9.38;71.41
21944;BME280;11136;48.778;9.126;2023-12-29T06:18:06;97277.69;;;9.35;71.98
21944;BME280;11136;48.778;9.126;2023-12-29T06:20:31;97195.59;;;8.84;71.54
21944;BME280;11136;48.778;9.126;2023-12-29T06:22:56;97448.81;;;10.36;71.82
21944;BME280;11136;48.778;9.126;2023-12-29T06:25:22;97311.91;;;9.46;71.75
21944;BME280;11136;48.778;9.126;2023-12-29T06:27:47;97281.63;;;9.26;71.74
21944;BME280;11136;48.778;9.126;2023-12-29T06:30:14;97421.06;;;10.16;72.11
21944;BME280;11136;48.778;9.126;2023-12-29T06:32:39;97340.56;;;9.66;71.82
21944;BME280;11136;48.778;9.126;2023-12-29T06:35:05;97472.78;;;10.49;72.38
21944;BME280;11136;48.778;9.126;2023-12-29T06:37:32;97416.41;;;10.22;71.53
21944;BME280;11136;48.778;9.126;2023-12-29T06:39:58;97467.13;;;10.57;71.87
21944;BME280;11136;48.778;9.126;2023-12-29T06:42:24;97457.72;;;10.57;72.07
21944;BME280;11136;48.778;9.126;2023-12-29T06:44:49;97360.38;;;10.03;71.82
21944;BME280;11136;48.778;9.126;2023-12-29T06:47:15;97185.44;;;8.82;71.58
21944;BME280;11136;48.778;9.126;2023-12-29T06:49:40;97285.66;;;9.57;71.68
21944;BME280;11136;48.778;9.126;2023-12-29T06:52:06;97369.78;;;9.76;72.06
21944;BME280;11136;48.778;9.126;2023-12-29T06:54:31;97320.59;;;9.71;71.99
21944;BME280;11136;48.778;9.126;2023-12-29T06:56:57;97462.13;;;10.55;71.75
21944;BME280;11136;48.778;9.126;2023-12-29T06:59:23;97043.47;;;7.82;71.88
21944;BME280;11136;48.778;9.126;2023-12-29T07:01:48;96903.66;;;7.17;71.62
21944;BME280;11136;48.778;9.126;2023-12-29T07:04:14;97260.59;;;9.35;72.15
21944;BME280;11136;48.778;9.126;2023-12-29T07:06:40;96991.44;;;7.56;71.65
21944;BME280;11136;48.778;9.126;2023-12-29T07:09:05;97402.59;;;10.10;71.92
21944;BME280;11136;48.778;9.126;2023-12-29T07:11:32;97387.31;;;10.09;72.14
21944;BME280;11136;48.778;9.126;2023-12-29T07:13:57;97448.81;;;10.36;72.08
21944;BME280;11136;48.778;9.126;2023-12-29T07:16:23;97383.75;;;10.11;72.33
21944;BME280;11136;48.778;9.126;2023-12-29T07:18:48;97383.22;;;10.06;72.57
21944;BME280;11136;48.778;9.126;2023-12-29T07:21:14;97462.63;;;10.60;72.83
21944;BME280;11136;48.778;9.126;2023-12-29T07:23:41;97449.91;;;10.59;72.56
21944;BME280;11136;48.778;9.126;2023-12-29T07:26:07;97352.25;;;9.70;73.24
21944;BME280;11136;48.778;9.126;2023-12-29T07:28:32;97267.47;;;9.20;73.60
21944;BME280;11136;48.778;9.126;2023-12-29T07:30:58;97296.41;;;9.35;73.90
21944;BME280;11136;48.778;9.126;2023-12-29T07:33:23;97337.47;;;9.61;73.70
21944;BME280;11136;48.778;9.126;2023-12-29T07:35:49;97364.91;;;9.59;73.85
21944;BME280;11136;48.778;9.126;2023-12-29T07:38:15;97430.63;;;9.99;74.37
21944;BME280;11136;48.778;9.126;2023-12-29T07:40:40;97081.09;;;8.07;74.25
21944;BME280;11136;48.778;9.126;2023-12-29T07:43:05;97231.00;;;8.90;73.92
21944;BME280;11136;48.778;9.126;2023-12-29T07:45:30;97436.94;;;10.35;74.30
21944;BME280;11136;48.778;9.126;2023-12-29T07:47:56;97209.03;;;8.87;74.34
21944;BME280;11136;48.778;9.126;2023-12-29T07:50:22;97513.81;;;10.35;74.52
21944;BME280;11136;48.778;9.126;2023-12-29T07:52:47;97395.00;;;9.82;74.31
21944;BME280;11136;48.778;9.126;2023-12-29T07:55:13;97314.72;;;9.56;73.81
21944;BME280;11136;48.778;9.126;2023-12-29T07:57:38;97283.00;;;9.17;74.47
21944;BME280;11136;48.778;9.126;2023-12-29T08:00:04;97427.91;;;10.15;74.53
21944;BME280;11136;48.778;9.126;2023-12-29T08:02:31;97407.53;;;9.87;74.65
21944;BME280;11136;48.778;9.126;2023-12-29T08:04:56;97122.59;;;8.39;74.73
21944;BME280;11136;48.778;9.126;2023-12-29T08:07:22;97273.03;;;9.27;74.88
21944;BME280;11136;48.778;9.126;2023-12-29T08:09:47;97410.81;;;9.89;74.66
21944;BME280;11136;48.778;9.126;2023-12-29T08:12:12;97357.84;;;9.89;74.17
21944;BME280;11136;48.778;9.126;2023-12-29T08:14:38;97372.28;;;9.90;74.40
21944;BME280;11136;48.778;9.126;2023-12-29T08:17:04;97335.22;;;9.69;74.12
21944;BME280;11136;48.778;9.126;2023-12-29T08:19:29;96997.00;;;7.62;73.99
21944;BME280;11136;48.778;9.126;2023-12-29T08:21:54;97298.75;;;9.52;74.14
21944;BME280;11136;48.778;9.126;2023-12-29T08:24:20;97188.16;;;8.67;73.70
21944;BME280;11136;48.778;9.126;2023-12-29T08:26:46;97465.75;;;10.65;74.31
21944;BME280;11136;48.778;9.126;2023-12-29T08:29:12;97486.16;;;10.67;74.22
21944;BME280;11136;48.778;9.126;2023-12-29T08:31:38;97412.44;;;10.17;74.49
21944;BME280;11136;48.778;9.126;2023-12-29T08:34:03;97301.44;;;9.64;74.20
21944;BME280;11136;48.778;9.126;2023-12-29T08:36:28;97185.94;;;8.75;74.04
21944;BME280;11136;48.778;9.126;2023-12-29T08:38:54;97340.22;;;9.85;73.58
21944;BME280;11136;48.778;9.126;2023-12-29T08:41:19;97319.72;;;9.85;73.77
21944;BME280;11136;48.778;9.126;2023-12-29T08:43:44;97379.41;;;9.99;73.96
21944;BME280;11136;48.778;9.126;2023-12-29T08:46:10;97465.56;;;10.81;73.83
21944;BME280;11136;48.778;9.126;2023-12-29T08:48:35;97475.91;;;10.80;74.13
21944;BME280;11136;48.778;9.126;2023-12-29T08:51:00;97494.38;;;10.85;73.57
21944;BME280;11136;48.778;9.126;2023-12-29T08:53:26;97467.09;;;10.84;73.75
21944;BME280;11136;48.778;9.126;2023-12-29T08:55:52;97466.38;;;10.82;73.76
21944;BME280;11136;48.778;9.126;2023-12-29T08:58:17;97151.38;;;8.26;73.56
21944;BME280;11136;48.778;9.126;2023-12-29T09:00:43;97176.38;;;8.64;73.46
21944;BME280;11136;48.778;9.126;2023-12-29T09:03:08;97475.03;;;10.93;73.08
21944;BME280;11136;48.778;9.126;2023-12-29T09:05:33;97390.59;;;10.38;73.07
21944;BME280;11136;48.778;9.126;2023-12-29T09:07:59;97287.66;;;9.79;73.37
21944;BME280;11136;48.778;9.126;2023-12-29T09:10:24;97479.84;;;10.98;72.92
21944;BME280;11136;48.778;9.126;2023-12-29T09:12:50;97458.97;;;10.77;72.70
21944;BME280;11136;48.778;9.126;2023-12-29T09:15:16;97309.91;;;9.78;72.82
21944;BME280;11136;48.778;9.126;2023-12-29T09:17:41;97371.31;;;10.32;73.08
21944;BME280;11136;48.778;9.126;2023-12-29T09:20:07;97329.91;;;10.26;72.59
21944;BME280;11136;48.778;9.126;2023-12-29T09:22:33;97560.97;;;11.13;72.58
21944;BME280;11136;48.778;9.126;2023-12-29T09:24:58;96964.53;;;7.93;72.33
21944;BME280;11136;48.778;9.126;2023-12-29T09:27:24;97421.22;;;10.66;72.67
21944;BME280;11136;48.778;9.126;2023-12-29T09:29:50;97471.94;;;11.26;72.42
21944;BME280;11136;48.778;9.126;2023-12-29T09:32:15;97285.56;;;9.98;72.37
21944;BME280;11136;48.778;9.126;2023-12-29T09:34:40;97193.25;;;9.35;72.94
21944;BME280;11136;48.778;9.126;2023-12-29T09:37:07;97473.38;;;11.05;73.44
21944;BME280;11136;48.778;9.126;2023-12-29T09:39:32;97274.34;;;9.74;72.66
21944;BME280;11136;48.778;9.126;2023-12-29T09:41:58;97314.94;;;9.93;72.89
21944;BME280;11136;48.778;9.126;2023-12-29T09:44:31;97341.53;;;10.17;73.17
21944;BME280;11136;48.778;9.126;2023-12-29T09:47:01;97324.31;;;10.06;73.08
21944;BME280;11136;48.778;9.126;2023-12-29T09:49:31;97414.13;;;10.57;73.36
21944;BME280;11136;48.778;9.126;2023-12-29T09:52:02;97410.97;;;10.66;73.40
21944;BME280;11136;48.778;9.126;2023-12-29T09:54:28;97132.88;;;8.78;73.19
21944;BME280;11136;48.778;9.126;2023-12-29T09:56:54;97280.91;;;9.78;73.36
21944;BME280;11136;48.778;9.126;2023-12-29T09:59:19;97412.41;;;10.70;73.23
21944;BME280;11136;48.778;9.126;2023-12-29T10:01:46;97214.50;;;9.62;72.99
21944;BME280;11136;48.778;9.126;2023-12-29T10:04:12;97495.69;;;11.43;72.62
21944;BME280;11136;48.778;9.126;2023-12-29T10:06:41;97404.50;;;10.73;72.98
21944;BME280;11136;48.778;9.126;2023-12-29T10:09:11;97483.19;;;11.75;72.44
21944;BME280;11136;48.778;9.126;2023-12-29T10:11:37;97415.91;;;11.33;71.61
21944;BME280;11136;48.778;9.126;2023-12-29T10:14:41;97454.25;;;11.85;71.61
21944;BME280;11136;48.778;9.126;2023-12-29T10:19:50;97469.81;;;12.08;70.83
21944;BME280;11136;48.778;9.126;2023-12-29T10:22:36;97485.84;;;12.35;70.39
21944;BME280;11136;48.778;9.126;2023-12-29T10:25:06;97189.66;;;10.53;70.14
21944;BME280;11136;48.778;9.126;2023-12-29T10:27:32;97281.75;;;11.18;70.13
21944;BME280;11136;48.778;9.126;2023-12-29T10:29:58;97471.69;;;12.65;69.71
21944;BME280;11136;48.778;9.126;2023-12-29T10:32:23;97396.31;;;12.29;68.98
21944;BME280;11136;48.778;9.126;2023-12-29T10:34:49;97405.91;;;12.38;68.42
21944;BME280;11136;48.778;9.126;2023-12-29T10:37:22;97408.81;;;12.34;68.02
21944;BME280;11136;48.778;9.126;2023-12-29T10:39:56;97386.72;;;12.31;67.39
21944;BME280;11136;48.778;9.126;2023-12-29T10:42:21;97296.53;;;11.99;67.34
21944;BME280;11136;48.778;9.126;2023-12-29T10:44:47;97268.47;;;11.85;67.10
21944;BME280;11136;48.778;9.126;2023-12-29T10:47:12;97441.47;;;13.26;66.55
21944;BME280;11136;48.778;9.126;2023-12-29T10:49:41;97369.50;;;12.67;65.93
21944;BME280;11136;48.778;9.126;2023-12-29T10:52:12;97447.78;;;13.55;65.54
21944;BME280;11136;48.778;9.126;2023-12-29T10:54:39;97181.03;;;12.09;64.92
21944;BME280;11136;48.778;9.126;2023-12-29T10:57:04;97441.91;;;13.75;64.61
21944;BME280;11136;48.778;9.126;2023-12-29T10:59:29;97117.66;;;11.74;63.85
21944;BME280;11136;48.778;9.126;2023-12-29T11:01:56;97407.97;;;13.70;63.56
21944;BME280;11136;48.778;9.126;2023-12-29T11:04:24;97247.81;;;12.77;62.53
21944;BME280;11136;48.778;9.126;2023-12-29T11:06:50;97429.59;;;13.90;62.24
21944;BME280;11136;48.778;9.126;2023-12-29T11:09:29;97421.88;;;13.90;62.53
21944;BME280;11136;48.778;9.126;2023-12-29T11:12:00;97417.50;;;14.02;62.46
21944;BME280;11136;48.778;9.126;2023-12-29T11:14:26;97440.69;;;14.13;61.89
21944;BME280;11136;48.778;9.126;2023-12-29T11:16:54;97045.53;;;11.77;61.80
21944;BME280;11136;48.778;9.126;2023-12-29T11:19:20;97414.28;;;14.21;61.84
21944;BME280;11136;48.778;9.126;2023-12-29T11:21:46;97364.41;;;13.67;60.32
21944;BME280;11136;48.778;9.126;2023-12-29T11:24:13;97409.50;;;14.16;60.90
21944;BME280;11136;48.778;9.126;2023-12-29T11:26:39;97307.56;;;13.37;60.62
21944;BME280;11136;48.778;9.126;2023-12-29T11:29:05;97333.97;;;13.50;60.41
21944;BME280;11136;48.778;9.126;2023-12-29T11:31:31;97240.97;;;13.10;60.29
21944;BME280;11136;48.778;9.126;2023-12-29T11:34:04;97183.28;;;12.69;59.69
21944;BME280;11136;48.778;9.126;2023-12-29T11:36:34;97402.16;;;14.44;60.00
21944;BME280;11136;48.778;9.126;2023-12-29T11:39:09;97400.84;;;14.49;59.34
21944;BME280;11136;48.778;9.126;2023-12-29T11:41:54;97405.41;;;14.46;58.34
21944;BME280;11136;48.778;9.126;2023-12-29T11:44:25;97277.31;;;13.50;58.42
21944;BME280;11136;48.778;9.126;2023-12-29T11:46:56;97198.56;;;12.93;58.47
21944;BME280;11136;48.778;9.126;2023-12-29T11:49:22;97278.94;;;13.51;57.46
21944;BME280;11136;48.778;9.126;2023-12-29T11:51:49;97411.81;;;14.30;57.39
21944;BME280;11136;48.778;9.126;2023-12-29T11:54:25;97320.44;;;13.80;56.30
21944;BME280;11136;48.778;9.126;2023-12-29T11:56:52;97280.75;;;13.39;56.39
21944;BME280;11136;48.778;9.126;2023-12-29T11:59:25;97297.69;;;13.53;56.56
21944;BME280;11136;48.778;9.126;2023-12-29T12:01:54;97388.28;;;14.13;56.23
21944;BME280;11136;48.778;9.126;2023-12-29T12:07:08;97380.25;;;13.95;56.75
21944;BME280;11136;48.778;9.126;2023-12-29T12:09:36;97288.59;;;13.15;56.58
21944;BME280;11136;48.778;9.126;2023-12-29T12:12:02;97102.66;;;12.03;56.44
21944;BME280;11136;48.778;9.126;2023-12-29T12:14:51;97291.31;;;12.92;56.29
21944;BME280;11136;48.778;9.126;2023-12-29T12:17:30;97366.03;;;13.57;56.79
21944;BME280;11136;48.778;9.126;2023-12-29T12:19:57;97395.31;;;13.67;56.84
21944;BME280;11136;48.778;9.126;2023-12-29T12:22:24;97389.56;;;13.86;56.32
21944;BME280;11136;48.778;9.126;2023-12-29T12:24:58;97365.03;;;13.92;56.42
21944;BME280;11136;48.778;9.126;2023-12-29T12:27:25;97335.31;;;13.76;56.12
21944;BME280;11136;48.778;9.126;2023-12-29T12:29:55;97357.22;;;14.14;56.28
21944;BME280;11136;48.778;9.126;2023-12-29T12:32:27;97202.69;;;13.28;55.93
21944;BME280;11136;48.778;9.126;2023-12-29T12:34:53;97257.56;;;13.71;55.76
21944;BME280;11136;48.778;9.126;2023-12-29T12:37:27;97348.16;;;14.20;55.29
21944;BME280;11136;48.778;9.126;2023-12-29T12:39:53;97341.88;;;14.13;54.66
21944;BME280;11136;48.778;9.126;2023-12-29T12:42:22;97073.53;;;12.36;55.31
21944;BME280;11136;48.778;9.126;2023-12-29T12:44:56;97340.00;;;14.35;54.76
21944;BME280;11136;48.778;9.126;2023-12-29T12:47:27;97353.09;;;14.55;54.58
21944;BME280;11136;48.778;9.126;2023-12-29T12:49:53;97302.31;;;14.23;54.29
21944;BME280;11136;48.778;9.126;2023-12-29T12:52:19;97281.56;;;14.04;53.55
21944;BME280;11136;48.778;9.126;2023-12-29T12:54:45;97149.13;;;13.22;53.92
21944;BME280;11136;48.778;9.126;2023-12-29T12:57:12;97191.63;;;13.48;54.25
21944;BME280;11136;48.778;9.126;2023-12-29T12:59:38;97232.91;;;13.90;53.55
21944;BME280;11136;48.778;9.126;2023-12-29T13:02:03;97368.31;;;14.58;52.99
21944;BME280;11136;48.778;9.126;2023-12-29T13:04:31;97353.78;;;14.57;53.34
21944;BME280;11136;48.778;9.126;2023-12-29T13:06:56;97209.84;;;13.56;53.89